White Mountain Summit Weather observations

Data are for 10 minute period ending at time listed.
 Day   Time   Solar   Ave.   Ave.  Ave.  Vector    Max.    Baro.  
  of    of     Rad.   Air    Rel.  Wind   Wind     Wind   Press.  
Year   Day            Temp.  Hum.  Speed  Dir.     Gust           
2015   (PST)   W/m2    F      %     mph   deg.      mph     mb.   
-------------------------------------------------------------------
 117   12:10    0.0    29   86.2    12     60.9    16.5   999.0 
 117   12:20    0.0    29   85.7    10     62.8    14.1   999.0 
 117   12:30    0.0    30   84.8    12     63.2    16.5   999.0 
 117   12:40    0.0    30   85.9    10     64.7    14.1   999.0 
 117   12:50    0.0    31   85.9     9     62.0    16.5   999.0 
 117   13:00    0.0    30   83.9    11     68.2    14.1   999.0 
 117   13:10    0.0    31   84.9     6     64.8    11.8   999.0 
 117   13:20    0.0    31   85.3     6     69.7     9.4   999.0 
 117   13:30    0.0    32   85.0     5     55.2     7.1   999.0 
 117   13:40    0.0    32   83.2     6     57.5     9.4   999.0 
 117   13:50    0.0    31   84.1     4     84.2     9.4   999.0 
 117   14:00    0.0    32   85.1     3     58.7     7.1   999.0 
 117   14:10    0.0    34   85.1     3     57.6     7.1   999.0 
 117   14:20    0.0    33   84.3     4     88.6     7.1   999.0 
 117   14:30    0.0    33   84.6     2     68.2     4.7   999.0 
 117   14:40    0.0    33   84.2     3     74.4     7.1   999.0 
 117   14:50    0.0    33   83.8     3    105.4     7.1   999.0 
 117   15:00    0.0    34   83.5     4     43.6     7.1   999.0 
 117   15:10    0.0    34   83.2     5     29.6     7.1   999.0 
 117   15:20    0.0    34   83.1     2     46.7     4.7   999.0 
 117   15:30    0.0    34   84.7     2     21.6     7.1   999.0 
 117   15:40    0.0    34   84.4     4    248.5     7.1   999.0 
 117   15:50    0.0    33   84.4     4    246.3     9.4   999.0 
 117   16:00    0.0    33   84.2     8    254.3    14.1   999.0 
 117   16:10    0.0    33   85.0     7    266.8    14.1   999.0 
 117   16:20    0.0    33   85.2     5    267.2     9.4   999.0 
 117   16:30    0.0    33   84.7     5    264.5     7.1   999.0 
 117   16:40    0.0    32   84.6     4    241.1     7.1   999.0 
 117   16:50    0.0    32   82.9     2     37.7     4.7   999.0 
 117   17:00    0.0    33   84.6     2     37.9     4.7   999.0 
 117   17:10    0.0    33   85.0     2     49.2     4.7   999.0 
 117   17:20    0.0    32   80.0     4     58.8     7.1   999.0 
 117   17:30    0.0    31   80.8     3     74.2     7.1   999.0 
 117   17:40    0.0    30   83.1     2     87.2     4.7   999.0 
 117   17:50    0.0    30   83.8     2     85.6     4.7   999.0 
 117   18:00    0.0    31   84.2     5    321.0     7.1   999.0 
 117   18:10    0.0    31   84.5     3    315.0     7.1   999.0 
 117   18:20    0.0    31   84.0     2    351.2     4.7   999.0 
 117   18:30    0.0    31   83.3     1     10.6     4.7   999.0 
 117   18:40    0.0    30   82.2     2     11.3     2.4   999.0 
 117   18:50    0.0    30   84.1     1     11.4     2.4   999.0 
 117   19:00    0.0    30   83.5     1     11.7     2.4   999.0 
 117   19:10    0.0    30   85.7     0     11.7     2.4   999.0 
 117   19:20    0.0    30   82.6     1     14.3     2.4   999.0 
 117   19:30    0.0    29   81.6     1     14.8     2.4   999.0 
 117   19:40    0.0    29   80.5     2     17.3     4.7   999.0 
 117   19:50    0.0    29   81.3     2     20.1     4.7   999.0 
 117   20:00    0.0    28   79.9     2     20.5     4.7   999.0 
 117   20:10    0.0    28   80.3     2     20.5     4.7   999.0 
 117   20:20    0.0    28   81.4     1     20.5     4.7   999.0 
 117   20:30    0.0    28   80.8     1     20.6     2.4   999.0 
 117   20:40    0.0    28   81.8     2     20.7     2.4   999.0 
 117   20:50    0.0    28   82.4     0     20.7     2.4   999.0 
 117   21:00    0.0    28   80.3     1     20.7     2.4   999.0 
 117   21:10    0.0    27   79.4     3     22.0     4.7   999.0 
 117   21:20    0.0    27   79.7     2     24.3     4.7   999.0 
 117   21:30    0.0    27   79.1     1     24.3     2.4   999.0 
 117   21:40    0.0    27   78.1     0     24.3     2.4   999.0 
 117   21:50    0.0    27   77.1     1     24.4     4.7   999.0 
 117   22:00    0.0    26   73.8     2     24.4     4.7   999.0 
 117   22:10    0.0    26   74.4     1     24.4     2.4   999.0 
 117   22:20    0.0    26   69.4     3     35.7     7.1   999.0 
 117   22:30    0.0    26   65.7     8     68.4    11.8   999.0 
 117   22:40    0.0    26   59.0    10     82.5    11.8   999.0 
 117   22:50    0.0    26   55.9     7     91.6     9.4   999.0 
 117   23:00    0.0    26   55.2     8     90.9     9.4   999.0 
 117   23:10    0.0    26   53.4     3     90.9     4.7   999.0 
 117   23:20    0.0    27   49.5     8     90.9     9.4   999.0 
 117   23:30    0.0    26   52.0     4     90.9     7.1   999.0 
 117   23:40    0.0    26   54.4     2     90.9     4.7   999.0 
 117   23:50    0.0    27   51.0     6     90.9     9.4   999.0 
 118    0:00    0.0    27   48.3     6     90.8     9.4   999.0 
 118    0:10    0.0    27   47.1     7     92.6    11.8   999.0 
 118    0:20    0.0    27   48.1     5     93.2     9.4   999.0 
 118    0:30    0.0    28   41.7     8     93.3    11.8   999.0 
 118    0:40    0.0    28   44.0     9     93.7    11.8   999.0 
 118    0:50    0.0    27   51.9     4     93.9     7.1   999.0 
 118    1:00    0.0    28   41.6     5     93.9     7.1   999.0 
 118    1:10    0.0    27   47.4     0     93.9     2.4   999.0 
 118    1:20    0.0    27   58.2     0      0.0     0.0   999.0 
 118    1:30    0.0    26   61.1     0      0.0     0.0   999.0 
 118    1:40    0.0    26   62.3     0      0.0     0.0   999.0 
 118    1:50    0.0    26   57.8     3    318.8     9.4   999.0 
 118    2:00    0.0    27   44.9     7    291.6    11.8   999.0 
 118    2:10    0.0    27   41.1     7    291.5     9.4   999.0 
 118    2:20    0.0    27   42.5     8    291.5    11.8   999.0 
 118    2:30    0.0    27   42.9     8    291.3    11.8   999.0 
 118    2:40    0.0    27   43.2     8    291.2    11.8   999.0 
 118    2:50    0.0    27   41.5     8    291.2    11.8   999.0 
 118    3:00    0.0    27   45.8     6    291.2     9.4   999.0 
 118    3:10    0.0    27   46.2     7    291.2     9.4   999.0 
 118    3:20    0.0    26   51.5     4    291.2     7.1   999.0 
 118    3:30    0.0    26   51.6     2    291.2     4.7   999.0 
 118    3:40    0.0    26   51.3     4    291.2     7.1   999.0 
 118    3:50    0.0    27   42.5     8    291.2     9.4   999.0 
 118    4:00    0.0    27   37.6     6    291.2     9.4   999.0 
 118    4:10    0.0    28   31.2     5    290.7     7.1   999.0 
 118    4:20    0.0    27   34.8     4    289.7     7.1   999.0 
 118    4:30    0.0    28   31.7     6    255.7     9.4   999.0 
 118    4:40    0.0    28   29.8     8    250.7    11.8   999.0 
 118    4:50    0.0    28   32.3     8    259.6     9.4   999.0 
 118    5:00    0.0    28   35.6     9    262.8    11.8   999.0 
 118    5:10    0.0    28   37.9     8    267.6    11.8   999.0 
 118    5:20    0.0    28   32.8    10    281.6    11.8   999.0 
 118    5:30    0.0    28   34.6    10    295.7    11.8   999.0 
 118    5:40  2748.0    27   41.1    10    296.1    11.8   999.0 
 118    5:50  5968.0    27   39.5     9    303.1    11.8   999.0 
 118    6:00  6547.0    27   42.4     8    307.8    11.8   999.0 
 118    6:10  3970.0    28   38.6     9    307.9    11.8   999.0 
 118    6:20  632.0    28   35.1    10    307.9    11.8   999.0 
 118    6:30  103.0    29   34.6     9    307.9    11.8   999.0 
 118    6:40    0.0    29   34.0    12    307.8    14.1   999.0 
 118    6:50    0.0    29   33.6     9    307.3    11.8   999.0 
 118    7:00    0.0    30   33.5     9    307.3    11.8   999.0 
 118    7:10    0.0    30   39.4     5    307.2     9.4   999.0 
 118    7:20    0.0    31   44.7     2    307.2     4.7   999.0 
 118    7:30    0.0    32   41.3     4    307.2     7.1   999.0 
 118    7:40    0.0    32   42.5     4    307.2     4.7   999.0 
 118    7:50    0.0    33   46.0     3    307.2     4.7   999.0 
 118    8:00    0.0    33   38.0     2    306.9     4.7   999.0 
 118    8:10    0.0    33   38.3     3    306.8     4.7   999.0 
 118    8:20    0.0    34   40.5     4    306.8     7.1   999.0 
 118    8:30    0.0    34   36.8     2    306.9     4.7   999.0 
 118    8:40    0.0    36   39.8     4    306.9     7.1   999.0 
 118    8:50    0.0    36   34.3     3      1.2     7.1   999.0 
 118    9:00    0.0    37   34.3     3     14.3     7.1   999.0 
 118    9:10    0.0    38   33.1     4    287.2     7.1   999.0 
 118    9:20    0.0    36   27.4     4    258.1     9.4   999.0 
 118    9:30    0.0    34   29.8     4    226.7     7.1   999.0 
 118    9:40    0.0    34   31.3     4    205.4     7.1   999.0 
 118    9:50    0.0    34   32.7     6    208.0     9.4   999.0 
 118   10:00    0.0    35   34.8     4    209.6     7.1   999.0 
 118   10:10    0.0    38   33.6     6    249.7     9.4   999.0 
 118   10:20    0.0    38   33.3     5    280.3     7.1   999.0 
 118   10:30    0.0    38   34.0     6    280.4     9.4   999.0 
 118   10:40    0.0    39   33.4     6    280.8     9.4   999.0 
 118   10:50    0.0    37   32.5     7    247.4     9.4   999.0 
 118   11:00    0.0    37   33.2     8    243.0    11.8   999.0 
 118   11:10    0.0    37   32.0     8    241.2    11.8   999.0 
 118   11:20    0.0    36   31.8     8    232.3    11.8   999.0 
 118   11:30    0.0    37   31.7    10    235.7    14.1   999.0 
 118   11:40    0.0    37   31.8    11    239.8    16.5   999.0 
 118   11:50    0.0    38   31.8    10    244.9    14.1   999.0 
 118   12:00    0.0    39   31.4    11    254.7    16.5   999.0 

Return to White Mountain graphs page.


Western Regional Climate Center,wrcc@dri.edu